Montes Claros, Brazil

7:21 PM BRT on August 31, 2015 (GMT -0300)
Montes Claros | | Change Station
CLOSE
Current Station
Airport
Location: Montes Claros,
Elevation: 2188 ft
Nearby Weather Stations

Elev 2188 ft 16.71 °S, 43.82 °W | Updated 21 minutes ago

Clear
Clear
79 °F
Feels Like 79 °F
N
9
Wind Variable Wind from East

Today
High -- | Low -- °F
--% Chance of Precip.
Yesterday
High -- | Low -- °F
Precip. -- in
6:02 AM 5:48 PM
Waning Gibbous, 93% visible
Pressure 30.09 in
Visibility -9999.0 miles
Clouds
Dew Point 43 °F
Humidity 28%
Rainfall 0.00 in
Snow Depth Not available.
UV Not available.
Pollen Not available.
Air Quality Not available.
Flu Activity Not available.
METAR SBMK 312200Z 09008KT CAVOK 26/06 Q1019
Pressure 30.09 in
Visibility -9999.0 miles
Clouds
Dew Point 43 °F
Humidity 28%
Rainfall 0.00 in
Snow Depth Not available.
UV Not available.
Pollen Not available.
Air Quality Not available.
Flu Activity Not available.
METAR SBMK 312200Z 09008KT CAVOK 26/06 Q1019

10-Day Weather Forecast

×

Almanac

Astronomy

Aug. 31, 2015 Rise Set
Actual Time
Civil Twilight
Nautical Twilight
Astronomical Twilight
Moon
Length of Visible Light
Length of Day
Tomorrow will be .
, % of the Moon is Illuminated

Today's Extremes

Country Highs Country Lows

Community

WunderPhotos

Upload Photos

1,851,390 photos uploaded!

WunderBlogs® & News

Nearby

Air Quality

  Air Quality AQ Index Pollutant
Not available.

Snow Depth

Station Depth Elevation

Earthquake Activity

City Distance Mag. Time & Date
Minimum magnitude displayed is 2.5.

Coastal Water Temperatures

Place Temperature

Stations

Nearby Weather Stations

Station Location Temp. Windchill Dew Point Humidity Wind Precip. Elev Updated Type